Time;durP1;ratioP1;P1;durP2;ratioP2;P2;SDS_P1;SDS_P2;PMS_P1;PMS_P2;Temp;Humidity;BMP_temperature;BMP_pressure;BME280_temperature;BME280_humidity;BME280_pressure;Samples;Min_cycle;Max_cycle;Signal;HPM_P1;HPM_P2
2022/07/11 00:00:11;;;;;;;1.23;0.50;;;17.00;99.90;;;;;;4980512;28;20073;-43
2022/07/11 00:02:39;;;;;;;1.65;0.70;;;17.00;99.90;;;;;;4984612;28;20440;-44
2022/07/11 00:05:05;;;;;;;1.95;0.60;;;17.00;99.90;;;;;;4983485;28;20067;-43
2022/07/11 00:07:31;;;;;;;2.42;0.55;;;17.00;99.90;;;;;;4981010;28;20038;-43
2022/07/11 00:09:57;;;;;;;2.95;0.68;;;17.00;99.90;;;;;;4982113;28;20096;-44
2022/07/11 00:12:26;;;;;;;3.05;0.60;;;16.90;99.90;;;;;;4984227;28;20125;-43
2022/07/11 00:14:53;;;;;;;3.25;0.88;;;16.90;99.90;;;;;;4983626;28;20060;-43
2022/07/11 00:17:19;;;;;;;2.15;0.70;;;16.90;99.90;;;;;;4985280;28;20050;-45
2022/07/11 00:19:45;;;;;;;1.98;0.60;;;16.90;99.90;;;;;;4986442;28;20035;-45
2022/07/11 00:22:12;;;;;;;4.82;0.70;;;16.90;99.90;;;;;;4984509;28;20092;-43
2022/07/11 00:24:38;;;;;;;3.15;1.15;;;16.90;99.90;;;;;;4985305;28;20510;-43
2022/07/11 00:27:04;;;;;;;3.88;0.80;;;16.80;99.90;;;;;;4983773;28;20034;-45
2022/07/11 00:29:30;;;;;;;3.92;1.25;;;16.70;99.90;;;;;;4980286;28;20054;-42
2022/07/11 00:31:57;;;;;;;1.58;0.50;;;16.80;99.90;;;;;;4981976;28;20065;-43
2022/07/11 00:34:23;;;;;;;1.73;0.70;;;16.70;99.90;;;;;;4981768;28;20081;-44
2022/07/11 00:36:48;;;;;;;2.65;0.77;;;16.70;99.90;;;;;;4985020;28;20080;-44
2022/07/11 00:39:14;;;;;;;2.33;0.80;;;16.70;99.90;;;;;;4980701;28;20042;-42
2022/07/11 00:41:40;;;;;;;1.63;0.68;;;16.70;99.90;;;;;;4986108;28;20125;-43
2022/07/11 00:44:05;;;;;;;4.85;0.90;;;16.70;99.90;;;;;;4978076;28;20082;-44
2022/07/11 00:46:31;;;;;;;2.75;0.80;;;16.70;99.90;;;;;;4982419;28;20073;-43
2022/07/11 00:48:59;;;;;;;2.80;0.90;;;16.70;99.90;;;;;;4988469;28;20049;-43
2022/07/11 00:51:25;;;;;;;3.85;0.95;;;16.70;99.90;;;;;;4984331;28;20121;-43
2022/07/11 00:53:56;;;;;;;2.35;0.70;;;16.70;99.90;;;;;;4983010;28;20053;-46
2022/07/11 00:56:26;;;;;;;1.70;0.75;;;16.70;99.90;;;;;;4983463;28;20479;-45
2022/07/11 00:58:54;;;;;;;5.68;1.20;;;16.70;99.90;;;;;;4981369;28;20038;-45
2022/07/11 01:01:20;;;;;;;2.53;0.82;;;16.70;99.90;;;;;;4983256;28;20100;-42
2022/07/11 01:03:46;;;;;;;2.38;0.93;;;16.70;99.90;;;;;;4985004;28;20507;-44
2022/07/11 01:06:12;;;;;;;3.08;1.15;;;16.70;99.90;;;;;;4986589;28;20050;-43
2022/07/11 01:08:39;;;;;;;2.63;0.95;;;16.70;99.90;;;;;;4985110;28;20034;-43
2022/07/11 01:11:10;;;;;;;1.33;0.60;;;16.60;99.90;;;;;;4982212;28;20038;-45
2022/07/11 01:13:35;;;;;;;6.10;1.05;;;16.70;99.90;;;;;;4979552;28;20050;-45
2022/07/11 01:16:16;;;;;;;1.90;0.75;;;16.60;99.90;;;;;;4982042;28;20034;-44
2022/07/11 01:18:52;;;;;;;5.22;0.80;;;16.50;99.90;;;;;;4978504;28;20486;-43
2022/07/11 01:21:52;;;;;;;3.88;0.60;;;16.50;99.90;;;;;;4984911;28;20050;-45
2022/07/11 01:24:18;;;;;;;1.70;0.70;;;16.40;99.90;;;;;;4950873;28;20482;-44
2022/07/11 01:26:45;;;;;;;2.05;0.75;;;16.40;99.90;;;;;;4984098;28;20042;-43
2022/07/11 01:29:13;;;;;;;0.80;0.50;;;16.40;99.90;;;;;;4981695;28;20516;-46
2022/07/11 01:31:40;;;;;;;1.77;0.70;;;16.40;99.90;;;;;;4980817;28;20046;-46
2022/07/11 01:34:06;;;;;;;2.65;0.63;;;16.30;99.90;;;;;;4983128;28;20526;-46
2022/07/11 01:36:32;;;;;;;2.20;0.98;;;16.40;99.90;;;;;;4984163;28;20046;-42
2022/07/11 01:38:58;;;;;;;3.03;0.70;;;16.30;99.90;;;;;;4981814;28;20038;-42
2022/07/11 01:41:24;;;;;;;2.38;0.88;;;16.40;99.90;;;;;;4997956;28;20038;-45
2022/07/11 01:43:50;;;;;;;2.28;0.80;;;16.40;99.90;;;;;;4986589;28;20136;-43
2022/07/11 01:46:17;;;;;;;1.85;0.90;;;16.40;99.90;;;;;;4986417;28;20488;-44
2022/07/11 01:48:43;;;;;;;2.40;0.73;;;16.40;99.90;;;;;;4978877;28;20042;-43
2022/07/11 01:51:09;;;;;;;4.03;0.98;;;16.40;99.90;;;;;;4982375;28;20605;-42
2022/07/11 01:53:35;;;;;;;2.22;0.70;;;16.30;99.90;;;;;;4982506;28;20046;-44
2022/07/11 01:56:01;;;;;;;1.90;0.85;;;16.30;99.90;;;;;;4979265;28;20046;-42
2022/07/11 01:58:30;;;;;;;4.35;0.98;;;16.30;99.90;;;;;;4980898;28;20044;-43
2022/07/11 02:00:56;;;;;;;1.63;0.85;;;16.30;99.90;;;;;;4983521;28;20478;-45
2022/07/11 02:03:22;;;;;;;2.70;0.85;;;16.30;99.90;;;;;;4984049;28;20065;-45
2022/07/11 02:05:48;;;;;;;3.17;0.90;;;16.20;99.90;;;;;;4982920;28;20056;-45
2022/07/11 02:08:14;;;;;;;3.40;0.95;;;16.20;99.90;;;;;;4979629;28;20038;-46
2022/07/11 02:10:44;;;;;;;2.85;1.20;;;16.20;99.90;;;;;;4983556;28;20086;-42
2022/07/11 02:13:12;;;;;;;3.80;1.10;;;16.20;99.90;;;;;;4982901;28;20499;-43
2022/07/11 02:15:39;;;;;;;4.15;1.30;;;16.20;99.90;;;;;;4984617;28;20081;-43
2022/07/11 02:18:05;;;;;;;4.25;1.20;;;16.20;99.90;;;;;;4982125;28;20535;-43
2022/07/11 02:20:31;;;;;;;3.83;1.20;;;16.20;99.90;;;;;;4984281;28;20445;-44
2022/07/11 02:22:58;;;;;;;3.45;1.15;;;16.10;99.90;;;;;;4976994;28;20101;-43
2022/07/11 02:25:24;;;;;;;4.43;1.40;;;16.10;99.90;;;;;;4975802;28;20073;-42
2022/07/11 02:27:51;;;;;;;2.95;1.17;;;16.10;99.90;;;;;;4983355;28;20041;-45
2022/07/11 02:30:16;;;;;;;4.90;1.60;;;16.10;99.90;;;;;;4982875;28;20038;-43
2022/07/11 02:32:42;;;;;;;6.07;1.17;;;16.10;99.90;;;;;;4977695;28;20047;-45
2022/07/11 02:35:08;;;;;;;3.83;1.42;;;16.10;99.90;;;;;;4978436;28;20455;-42
2022/07/11 02:37:34;;;;;;;5.93;1.40;;;16.10;99.90;;;;;;4979494;28;20050;-43
2022/07/11 02:40:00;;;;;;;3.75;1.55;;;16.10;99.90;;;;;;4984111;28;20461;-44
2022/07/11 02:42:25;;;;;;;3.03;1.48;;;16.00;99.90;;;;;;4980598;28;20042;-44
2022/07/11 02:44:51;;;;;;;2.63;1.00;;;16.00;99.90;;;;;;4982746;28;20030;-46
2022/07/11 02:47:17;;;;;;;4.60;1.33;;;16.00;99.90;;;;;;4983354;28;20052;-45
2022/07/11 02:49:43;;;;;;;3.95;1.40;;;16.00;99.90;;;;;;4983797;28;20039;-43
2022/07/11 02:52:08;;;;;;;2.55;0.90;;;16.00;99.90;;;;;;4981375;28;20074;-43
2022/07/11 02:54:35;;;;;;;4.32;1.35;;;16.00;99.90;;;;;;4982361;28;20098;-43
2022/07/11 02:57:00;;;;;;;3.58;1.50;;;16.00;99.90;;;;;;4981838;28;20493;-44
2022/07/11 02:59:27;;;;;;;4.63;1.20;;;16.00;99.90;;;;;;4976456;28;20136;-43
2022/07/11 03:01:53;;;;;;;6.28;1.20;;;16.00;99.90;;;;;;4984067;28;20034;-44
2022/07/11 03:04:18;;;;;;;3.75;1.40;;;16.00;99.90;;;;;;4978371;28;20054;-44
2022/07/11 03:06:44;;;;;;;7.30;1.40;;;16.00;99.90;;;;;;4983665;28;20050;-44
2022/07/11 03:09:10;;;;;;;4.70;1.15;;;16.00;99.90;;;;;;4986976;28;20057;-52
2022/07/11 03:11:36;;;;;;;3.28;1.17;;;16.00;99.90;;;;;;4986152;28;20122;-42
2022/07/11 03:14:02;;;;;;;4.75;1.50;;;16.00;99.90;;;;;;4982226;28;20468;-43
2022/07/11 03:16:28;;;;;;;2.88;1.40;;;16.00;99.90;;;;;;4986545;28;20100;-44
2022/07/11 03:18:54;;;;;;;4.43;1.35;;;16.00;99.90;;;;;;4987701;28;20038;-43
2022/07/11 03:21:20;;;;;;;2.58;1.10;;;15.90;99.90;;;;;;4988608;28;20038;-45
2022/07/11 03:23:45;;;;;;;5.80;1.60;;;15.90;99.90;;;;;;4983887;28;20049;-42
2022/07/11 03:26:11;;;;;;;4.03;1.60;;;15.90;99.90;;;;;;4982399;28;20041;-44
2022/07/11 03:28:37;;;;;;;3.65;1.48;;;15.90;99.90;;;;;;4985756;28;20030;-43
2022/07/11 03:31:03;;;;;;;5.72;1.60;;;15.90;99.90;;;;;;4983333;28;20037;-43
2022/07/11 03:33:29;;;;;;;4.57;1.40;;;15.90;99.90;;;;;;4988211;28;20113;-45
2022/07/11 03:35:55;;;;;;;3.65;1.73;;;15.90;99.90;;;;;;4987232;28;20034;-43
2022/07/11 03:38:21;;;;;;;3.95;1.38;;;15.90;99.90;;;;;;4986471;28;20073;-48
2022/07/11 03:40:47;;;;;;;5.57;1.50;;;15.90;99.90;;;;;;4984751;28;20150;-44
2022/07/11 03:43:14;;;;;;;4.55;1.52;;;15.90;99.90;;;;;;4986450;28;20042;-44
2022/07/11 03:45:40;;;;;;;4.55;1.58;;;15.90;99.90;;;;;;4985655;28;20109;-42
2022/07/11 03:48:07;;;;;;;3.63;1.60;;;15.90;99.90;;;;;;4984560;28;20046;-42
2022/07/11 03:50:33;;;;;;;6.07;1.17;;;16.00;99.90;;;;;;4995871;28;20047;-42
2022/07/11 03:52:59;;;;;;;6.28;1.58;;;16.00;99.90;;;;;;4982636;28;20572;-42
2022/07/11 03:55:25;;;;;;;7.18;1.52;;;16.00;99.90;;;;;;4984089;28;20079;-43
2022/07/11 03:57:50;;;;;;;4.47;2.05;;;16.00;99.90;;;;;;4983394;28;20462;-44
2022/07/11 04:00:16;;;;;;;2.92;1.33;;;16.00;99.90;;;;;;4977904;28;20080;-43
2022/07/11 04:02:42;;;;;;;5.03;1.63;;;16.00;99.90;;;;;;4981371;28;20030;-42
2022/07/11 04:05:08;;;;;;;4.30;1.30;;;16.00;99.90;;;;;;4980986;28;20508;-44
2022/07/11 04:07:34;;;;;;;5.82;1.63;;;16.00;99.90;;;;;;4979404;28;20128;-43
2022/07/11 04:10:00;;;;;;;3.08;1.20;;;16.00;99.90;;;;;;4983690;28;20030;-42
2022/07/11 04:12:26;;;;;;;3.15;1.80;;;16.00;99.90;;;;;;4980829;28;20046;-43
2022/07/11 04:14:51;;;;;;;2.63;1.58;;;16.10;99.90;;;;;;4985745;28;20045;-47
2022/07/11 04:17:17;;;;;;;4.03;1.52;;;16.00;99.90;;;;;;4981930;28;20042;-46
2022/07/11 04:19:43;;;;;;;5.70;1.52;;;16.00;99.90;;;;;;4982476;28;20046;-46
2022/07/11 04:22:09;;;;;;;4.43;1.80;;;16.00;99.90;;;;;;4980938;28;20046;-42
2022/07/11 04:24:35;;;;;;;5.93;2.10;;;16.10;99.90;;;;;;4984108;28;20067;-42
2022/07/11 04:27:00;;;;;;;4.53;1.67;;;16.10;99.90;;;;;;4983015;28;20086;-43
2022/07/11 04:29:26;;;;;;;3.25;1.50;;;16.10;99.90;;;;;;4987273;28;20039;-43
2022/07/11 04:31:52;;;;;;;2.47;1.15;;;16.10;99.90;;;;;;4997508;28;20380;-44
2022/07/11 04:34:18;;;;;;;6.18;1.10;;;16.10;99.90;;;;;;4982936;28;20050;-44
2022/07/11 04:36:45;;;;;;;3.05;1.08;;;16.10;99.90;;;;;;4982886;28;20514;-47
2022/07/11 04:39:10;;;;;;;2.95;1.02;;;16.10;99.90;;;;;;4984053;28;20062;-43
2022/07/11 04:41:36;;;;;;;1.88;1.02;;;16.10;99.90;;;;;;4978956;28;20087;-43
2022/07/11 04:44:02;;;;;;;3.10;0.90;;;16.00;99.90;;;;;;4979481;28;20045;-45
2022/07/11 04:46:29;;;;;;;5.38;1.48;;;16.00;99.90;;;;;;4983880;28;20065;-43
2022/07/11 04:48:55;;;;;;;10.77;2.15;;;16.00;99.90;;;;;;4983841;28;20582;-47
2022/07/11 04:51:21;;;;;;;3.80;1.50;;;16.00;99.90;;;;;;4982335;28;20038;-45
2022/07/11 04:53:47;;;;;;;3.90;0.82;;;16.00;99.90;;;;;;4982050;28;20530;-44
2022/07/11 04:56:13;;;;;;;1.80;0.70;;;16.00;99.90;;;;;;4982150;28;20062;-45
2022/07/11 04:58:39;;;;;;;1.80;0.80;;;16.10;99.90;;;;;;4984982;28;20504;-43
2022/07/11 05:01:05;;;;;;;2.35;0.80;;;16.10;99.90;;;;;;4985407;28;20043;-43
2022/07/11 05:03:34;;;;;;;2.35;0.70;;;16.20;99.90;;;;;;4984839;28;20057;-43
2022/07/11 05:05:59;;;;;;;2.03;0.80;;;16.20;99.90;;;;;;4986156;28;20440;-42
2022/07/11 05:08:25;;;;;;;5.60;1.02;;;16.30;99.90;;;;;;4983677;28;20085;-44
2022/07/11 05:10:51;;;;;;;3.03;0.80;;;16.30;99.90;;;;;;4981972;28;20081;-43
2022/07/11 05:13:17;;;;;;;2.78;0.88;;;16.30;99.90;;;;;;4979551;28;20042;-44
2022/07/11 05:15:44;;;;;;;1.90;0.68;;;16.30;99.90;;;;;;4984343;28;20387;-44
2022/07/11 05:18:10;;;;;;;2.58;0.70;;;16.40;99.90;;;;;;4982734;28;20479;-43
2022/07/11 05:20:36;;;;;;;2.45;0.68;;;16.50;99.90;;;;;;4981198;28;20046;-48
2022/07/11 05:23:02;;;;;;;2.42;0.65;;;16.50;99.90;;;;;;4984322;28;20044;-42
2022/07/11 05:25:28;;;;;;;3.88;1.10;;;16.60;99.90;;;;;;4981113;28;20038;-42
2022/07/11 05:27:53;;;;;;;5.50;1.00;;;16.60;99.90;;;;;;4982422;28;20038;-43
2022/07/11 05:30:19;;;;;;;3.13;0.60;;;16.60;99.90;;;;;;4981301;28;20412;-42
2022/07/11 05:32:45;;;;;;;1.92;0.47;;;16.60;99.90;;;;;;4980304;28;20125;-42
2022/07/11 05:35:11;;;;;;;3.53;0.52;;;16.70;99.90;;;;;;4981420;28;20109;-42
2022/07/11 05:37:37;;;;;;;3.35;0.90;;;16.70;99.90;;;;;;4982748;28;20050;-43
2022/07/11 05:40:03;;;;;;;1.88;0.40;;;16.80;99.90;;;;;;4982075;28;20519;-42
2022/07/11 05:42:28;;;;;;;1.20;0.40;;;16.80;99.90;;;;;;4975430;28;20112;-43
2022/07/11 05:44:54;;;;;;;1.40;0.40;;;16.80;99.90;;;;;;4985896;28;20480;-42
2022/07/11 05:47:20;;;;;;;1.17;0.30;;;16.90;99.90;;;;;;4978252;28;20137;-42
2022/07/11 05:49:46;;;;;;;1.08;0.40;;;16.90;99.90;;;;;;4982262;28;20034;-43
2022/07/11 05:52:12;;;;;;;0.95;0.35;;;17.00;99.90;;;;;;4978248;28;20038;-42
2022/07/11 05:54:37;;;;;;;1.42;0.50;;;16.90;99.90;;;;;;4984765;28;20038;-45
2022/07/11 05:57:03;;;;;;;0.60;0.20;;;16.90;99.90;;;;;;4982360;28;20030;-43
2022/07/11 05:59:30;;;;;;;0.30;0.20;;;17.00;99.90;;;;;;4977108;28;20050;-42
2022/07/11 06:01:55;;;;;;;5.75;0.82;;;17.00;99.90;;;;;;4981033;28;20042;-43
2022/07/11 06:04:21;;;;;;;4.53;0.70;;;17.10;99.90;;;;;;4981641;28;20101;-43
2022/07/11 06:06:47;;;;;;;2.53;0.50;;;17.10;99.90;;;;;;4980776;28;20471;-41
2022/07/11 06:09:13;;;;;;;2.03;0.32;;;17.20;99.90;;;;;;4978915;28;20046;-42
2022/07/11 06:11:39;;;;;;;0.77;0.30;;;17.30;99.90;;;;;;4978041;28;20045;-42
2022/07/11 06:14:07;;;;;;;0.93;0.35;;;17.30;99.90;;;;;;4978952;28;20516;-42
2022/07/11 06:16:35;;;;;;;1.55;0.40;;;17.30;99.90;;;;;;4993102;28;20618;-45
2022/07/11 06:19:00;;;;;;;0.60;0.30;;;17.40;99.90;;;;;;4981692;28;20475;-40
2022/07/11 06:21:27;;;;;;;1.38;0.30;;;17.40;99.90;;;;;;4984887;28;20042;-40
2022/07/11 06:23:54;;;;;;;0.80;0.30;;;17.40;99.90;;;;;;4986685;28;20492;-39
2022/07/11 06:26:20;;;;;;;2.15;0.50;;;17.50;99.90;;;;;;4977187;28;20604;-40
2022/07/11 06:28:46;;;;;;;0.77;0.40;;;17.60;99.90;;;;;;4969868;28;20054;-40
2022/07/11 06:31:12;;;;;;;1.20;0.40;;;17.70;99.90;;;;;;4983770;28;20030;-40
2022/07/11 06:33:38;;;;;;;0.80;0.22;;;17.80;99.90;;;;;;4979485;28;20526;-40
2022/07/11 06:36:05;;;;;;;0.73;0.20;;;17.80;99.90;;;;;;4981853;28;20045;-40
2022/07/11 06:38:31;;;;;;;0.75;0.17;;;17.80;99.90;;;;;;4997389;28;20307;-42
2022/07/11 06:40:57;;;;;;;0.77;0.20;;;17.90;99.90;;;;;;4987434;28;20451;-40
2022/07/11 06:43:24;;;;;;;0.98;0.30;;;17.90;99.90;;;;;;4985406;28;20263;-40
2022/07/11 06:45:50;;;;;;;0.98;0.20;;;18.00;99.90;;;;;;4990190;28;20043;-41
2022/07/11 06:48:17;;;;;;;0.95;0.20;;;18.00;99.90;;;;;;4986501;28;20161;-40
2022/07/11 06:50:42;;;;;;;1.27;0.30;;;18.00;99.90;;;;;;4985999;28;20081;-40
2022/07/11 06:53:09;;;;;;;2.10;0.40;;;18.10;99.90;;;;;;4987527;28;20189;-40
2022/07/11 06:55:35;;;;;;;1.45;0.38;;;18.20;99.90;;;;;;4988585;28;20101;-43
2022/07/11 06:58:01;;;;;;;0.60;0.28;;;18.20;99.90;;;;;;4988109;28;20038;-41
2022/07/11 07:00:30;;;;;;;0.50;0.20;;;18.20;99.90;;;;;;4980561;28;20042;-42
2022/07/11 07:02:56;;;;;;;0.32;0.10;;;18.30;99.90;;;;;;4986865;28;20177;-40
2022/07/11 07:05:26;;;;;;;0.50;0.20;;;18.30;99.90;;;;;;4983143;28;20184;-40
2022/07/11 07:07:52;;;;;;;0.65;0.20;;;18.30;99.90;;;;;;4986956;28;20061;-40
2022/07/11 07:10:18;;;;;;;0.85;0.20;;;18.30;99.90;;;;;;4984804;28;20522;-41
2022/07/11 07:12:44;;;;;;;1.00;0.30;;;18.30;99.90;;;;;;4987129;28;20066;-40
2022/07/11 07:15:10;;;;;;;3.10;0.50;;;18.30;99.90;;;;;;4988935;28;20077;-39
2022/07/11 07:17:36;;;;;;;2.67;0.20;;;18.30;99.90;;;;;;4988655;28;20046;-43
2022/07/11 07:20:04;;;;;;;0.57;0.25;;;18.30;99.90;;;;;;4984864;28;20039;-40
2022/07/11 07:22:30;;;;;;;1.95;0.52;;;18.30;99.90;;;;;;4985410;28;20057;-40
2022/07/11 07:24:56;;;;;;;0.93;0.30;;;18.30;99.90;;;;;;4982948;28;20097;-40
2022/07/11 07:27:21;;;;;;;0.90;0.20;;;18.30;99.90;;;;;;4987969;28;20114;-40
2022/07/11 07:29:48;;;;;;;0.98;0.20;;;18.40;99.90;;;;;;4986929;28;20475;-40
2022/07/11 07:32:14;;;;;;;1.10;0.30;;;18.40;99.90;;;;;;4985121;28;20049;-45
2022/07/11 07:34:39;;;;;;;0.55;0.17;;;18.40;99.90;;;;;;4988310;28;20034;-41
2022/07/11 07:37:05;;;;;;;3.08;0.30;;;18.50;99.90;;;;;;4988530;28;20169;-40
2022/07/11 07:39:31;;;;;;;1.00;0.28;;;18.60;99.90;;;;;;4985020;28;20046;-44
2022/07/11 07:41:57;;;;;;;4.88;0.20;;;18.50;99.90;;;;;;4987232;28;20046;-42
2022/07/11 07:44:23;;;;;;;0.60;0.10;;;18.60;99.90;;;;;;4985158;28;20046;-40
2022/07/11 07:46:48;;;;;;;1.95;0.13;;;18.70;99.90;;;;;;4984608;28;20143;-40
2022/07/11 07:49:14;;;;;;;0.60;0.20;;;18.70;99.90;;;;;;4987621;28;20046;-40
2022/07/11 07:51:40;;;;;;;0.85;0.10;;;18.70;99.90;;;;;;4985313;28;20088;-41
2022/07/11 07:54:05;;;;;;;1.05;0.20;;;18.80;99.90;;;;;;4983664;28;20373;-41
2022/07/11 07:56:31;;;;;;;0.63;0.30;;;18.90;99.90;;;;;;4986675;28;20038;-42
2022/07/11 07:58:57;;;;;;;1.25;0.22;;;19.00;99.90;;;;;;4989524;28;20395;-40
2022/07/11 08:01:34;;;;;;;0.57;0.10;;;19.10;99.90;;;;;;4981622;28;20058;-40
2022/07/11 08:04:02;;;;;;;0.45;0.10;;;19.10;99.90;;;;;;4981539;28;20100;-41
2022/07/11 08:06:27;;;;;;;0.57;0.20;;;19.20;99.90;;;;;;4988629;28;20555;-41
2022/07/11 08:08:53;;;;;;;0.25;0.10;;;19.30;99.90;;;;;;4988068;28;20117;-40
2022/07/11 08:11:19;;;;;;;0.40;0.10;;;19.40;99.90;;;;;;4984057;28;20141;-41
2022/07/11 08:13:44;;;;;;;0.38;0.10;;;19.50;99.90;;;;;;4986691;28;20034;-40
2022/07/11 08:16:10;;;;;;;1.48;0.00;;;19.50;99.90;;;;;;4986271;28;20379;-40
2022/07/11 08:18:36;;;;;;;1.08;0.10;;;19.40;99.90;;;;;;4986987;28;20050;-40
2022/07/11 08:21:02;;;;;;;0.10;0.10;;;19.30;99.90;;;;;;4988687;28;20511;-41
2022/07/11 08:23:28;;;;;;;0.88;0.10;;;19.20;99.90;;;;;;4987065;28;20451;-41
2022/07/11 08:25:54;;;;;;;1.65;0.10;;;19.00;99.90;;;;;;4987133;28;20149;-39
2022/07/11 08:28:19;;;;;;;0.20;0.00;;;18.90;99.90;;;;;;5001945;28;20038;-40
2022/07/11 08:30:45;;;;;;;0.20;0.10;;;18.90;99.90;;;;;;4980412;28;20038;-41
2022/07/11 08:33:12;;;;;;;1.13;0.20;;;18.80;99.90;;;;;;4983805;28;20045;-43
2022/07/11 08:35:38;;;;;;;0.10;0.10;;;18.80;99.90;;;;;;4982903;28;20041;-40
2022/07/11 08:38:03;;;;;;;0.20;0.13;;;18.90;99.90;;;;;;4980149;28;20038;-43
2022/07/11 08:40:29;;;;;;;0.35;0.10;;;18.90;99.90;;;;;;4984864;28;20061;-40
2022/07/11 08:42:57;;;;;;;0.10;0.10;;;19.00;99.90;;;;;;4981605;28;20133;-40
2022/07/11 08:45:29;;;;;;;0.10;0.10;;;19.10;99.90;;;;;;4986542;28;20459;-41
2022/07/11 08:47:55;;;;;;;0.20;0.00;;;19.20;99.90;;;;;;4979437;28;20046;-41
2022/07/11 08:50:23;;;;;;;1.00;0.20;;;19.40;99.90;;;;;;4984342;28;20042;-40
2022/07/11 08:52:49;;;;;;;0.20;0.10;;;19.50;99.90;;;;;;4980048;28;20101;-41
2022/07/11 08:55:14;;;;;;;1.20;0.10;;;19.70;99.90;;;;;;4987256;28;20038;-41
2022/07/11 08:57:40;;;;;;;0.10;0.10;;;19.80;99.90;;;;;;4983695;28;20037;-41
2022/07/11 09:00:09;;;;;;;1.60;0.10;;;19.80;99.90;;;;;;4987973;28;20039;-41
2022/07/11 09:02:35;;;;;;;0.68;0.25;;;19.70;99.90;;;;;;4980226;28;20511;-40
2022/07/11 09:05:08;;;;;;;0.20;0.10;;;19.60;99.90;;;;;;4988157;28;20472;-40
2022/07/11 09:07:35;;;;;;;2.17;0.20;;;19.60;99.90;;;;;;4984543;28;20101;-40
2022/07/11 09:10:00;;;;;;;0.98;0.20;;;19.60;99.90;;;;;;4981973;28;20491;-40
2022/07/11 09:12:26;;;;;;;0.30;0.10;;;19.60;99.90;;;;;;4987259;28;20042;-40
2022/07/11 09:14:52;;;;;;;0.50;0.10;;;19.70;99.90;;;;;;4988669;28;20042;-40
2022/07/11 09:17:30;;;;;;;0.43;0.10;;;19.80;99.90;;;;;;4986845;28;20068;-40
2022/07/11 09:19:56;;;;;;;0.55;0.10;;;19.90;99.90;;;;;;4999918;28;20442;-41
2022/07/11 09:27:49;;;;;;;0.60;0.10;;;20.00;99.90;;;;;;4982590;28;20062;-41
2022/07/11 09:30:17;;;;;;;0.45;0.10;;;19.90;99.90;;;;;;4979700;28;20475;-41
2022/07/11 09:32:59;;;;;;;0.73;0.10;;;19.80;99.90;;;;;;4981885;28;20034;-42
2022/07/11 09:35:38;;;;;;;0.73;0.10;;;19.70;99.90;;;;;;4981230;28;20037;-41
2022/07/11 09:38:12;;;;;;;0.30;0.10;;;19.60;99.90;;;;;;4986200;28;20104;-41
2022/07/11 09:40:42;;;;;;;0.85;0.10;;;19.50;99.90;;;;;;4986441;28;20057;-41
2022/07/11 09:43:07;;;;;;;0.10;0.10;;;19.50;99.90;;;;;;4985203;28;20069;-41
2022/07/11 09:45:35;;;;;;;0.20;0.10;;;19.70;99.90;;;;;;4986128;28;20034;-41
2022/07/11 09:48:07;;;;;;;0.28;0.10;;;19.80;99.90;;;;;;4984072;28;20046;-42
2022/07/11 09:50:32;;;;;;;;;;;19.90;99.90;;;;;;4985635;28;20334;-41
2022/07/11 09:52:59;;;;;;;0.47;0.10;;;20.10;99.90;;;;;;4983508;28;20417;-41
2022/07/11 09:55:26;;;;;;;0.32;0.10;;;20.20;99.90;;;;;;4988311;28;20041;-41
2022/07/11 09:57:52;;;;;;;0.10;0.10;;;20.20;99.90;;;;;;4980394;28;20042;-42
2022/07/11 10:00:18;;;;;;;0.17;0.10;;;20.30;99.90;;;;;;4979368;28;20100;-41
2022/07/11 10:02:45;;;;;;;0.30;0.20;;;20.30;99.90;;;;;;4983180;28;20043;-40
2022/07/11 10:05:11;;;;;;;0.20;0.10;;;20.30;99.90;;;;;;4983878;28;20175;-40
2022/07/11 10:07:36;;;;;;;0.20;0.10;;;20.30;99.90;;;;;;4982025;28;20074;-42
2022/07/11 10:10:05;;;;;;;0.15;0.10;;;20.30;99.90;;;;;;4984468;28;20117;-40
2022/07/11 10:12:33;;;;;;;1.15;0.10;;;20.30;99.90;;;;;;4979813;28;20125;-41
2022/07/11 10:15:06;;;;;;;0.75;0.20;;;20.30;99.90;;;;;;4986127;28;20514;-40
2022/07/11 10:18:00;;;;;;;0.77;0.20;;;20.20;99.90;;;;;;4983996;28;20057;-41
2022/07/11 10:20:49;;;;;;;0.55;0.10;;;20.10;99.90;;;;;;4982530;28;20100;-40
2022/07/11 10:23:41;;;;;;;0.20;0.10;;;19.90;99.90;;;;;;4984908;28;20045;-40
2022/07/11 10:26:19;;;;;;;0.20;0.10;;;19.90;99.90;;;;;;4986385;28;20196;-41
2022/07/11 10:29:12;;;;;;;0.73;0.20;;;19.90;99.90;;;;;;4981919;28;20117;-40
2022/07/11 10:31:39;;;;;;;0.30;0.20;;;19.90;99.90;;;;;;4983449;28;20069;-40
2022/07/11 10:34:18;;;;;;;1.60;0.17;;;19.80;99.90;;;;;;4980446;28;20075;-41
2022/07/11 10:36:45;;;;;;;1.05;0.30;;;19.80;99.90;;;;;;4986451;28;20077;-40
2022/07/11 10:39:29;;;;;;;0.57;0.10;;;19.80;99.90;;;;;;4984256;28;20086;-41
2022/07/11 10:42:00;;;;;;;0.20;0.10;;;19.80;99.90;;;;;;4980875;28;20105;-40
2022/07/11 10:44:28;;;;;;;0.38;0.10;;;19.90;99.90;;;;;;4979636;28;20039;-41
2022/07/11 10:46:54;;;;;;;0.50;0.10;;;20.10;99.90;;;;;;4987676;28;20058;-41
2022/07/11 10:49:31;;;;;;;0.25;0.10;;;20.30;99.90;;;;;;4984738;28;20041;-40
2022/07/11 10:52:04;;;;;;;0.20;0.20;;;20.50;99.90;;;;;;4982278;28;20050;-40
2022/07/11 10:54:42;;;;;;;0.40;0.10;;;20.50;99.90;;;;;;4984757;28;20034;-41
2022/07/11 10:57:08;;;;;;;0.57;0.20;;;20.40;99.90;;;;;;4985107;28;20046;-41
2022/07/11 10:59:33;;;;;;;0.10;0.10;;;20.40;99.90;;;;;;4981350;28;20054;-41
2022/07/11 11:02:10;;;;;;;0.28;0.10;;;20.50;99.90;;;;;;4982177;28;20042;-41
2022/07/11 11:04:44;;;;;;;0.40;0.20;;;20.50;99.90;;;;;;4978842;28;20061;-45
2022/07/11 11:07:32;;;;;;;0.35;0.10;;;20.60;99.90;;;;;;4979192;28;20081;-41
2022/07/11 11:09:58;;;;;;;0.10;0.10;;;20.80;99.90;;;;;;4983187;28;20046;-41
2022/07/11 11:13:06;;;;;;;0.20;0.10;;;20.90;99.90;;;;;;4984747;28;20053;-43
2022/07/11 11:15:52;;;;;;;0.73;0.25;;;21.10;99.90;;;;;;4958192;28;20042;-40
2022/07/11 11:18:26;;;;;;;0.50;0.20;;;21.10;99.90;;;;;;4982382;28;20054;-40
2022/07/11 11:21:04;;;;;;;0.22;0.10;;;21.10;99.90;;;;;;4978626;28;20042;-41
2022/07/11 11:23:31;;;;;;;0.13;0.10;;;21.10;99.90;;;;;;4977860;28;20050;-42
2022/07/11 11:26:23;;;;;;;1.95;0.20;;;21.20;99.90;;;;;;4985876;28;20437;-43
2022/07/11 11:29:01;;;;;;;0.10;0.10;;;21.30;99.90;;;;;;4980269;28;20046;-44
2022/07/11 11:31:29;;;;;;;0.77;0.10;;;21.30;99.90;;;;;;4987700;28;20824;-41
2022/07/11 11:33:56;;;;;;;0.50;0.20;;;21.30;99.90;;;;;;4985926;28;20522;-41
2022/07/11 11:36:23;;;;;;;1.17;0.10;;;21.30;99.90;;;;;;4989166;28;20046;-45
2022/07/11 11:38:49;;;;;;;0.13;0.10;;;21.40;99.90;;;;;;4985371;28;20506;-41
2022/07/11 11:41:26;;;;;;;0.17;0.10;;;21.50;99.90;;;;;;4985436;28;20034;-44
2022/07/11 11:43:53;;;;;;;0.73;0.20;;;21.50;99.90;;;;;;4985241;28;20043;-42
2022/07/11 11:46:22;;;;;;;0.32;0.20;;;21.40;99.90;;;;;;4987016;28;20491;-42
2022/07/11 11:48:48;;;;;;;1.02;0.15;;;21.20;99.90;;;;;;4990719;28;20132;-41
2022/07/11 11:51:16;;;;;;;0.10;0.10;;;21.10;99.90;;;;;;4986384;28;20038;-41
2022/07/11 11:53:56;;;;;;;2.88;0.20;;;21.10;99.90;;;;;;4987379;28;20510;-42
2022/07/11 11:56:32;;;;;;;0.15;0.10;;;21.20;99.90;;;;;;4988726;28;20034;-41
2022/07/11 11:59:12;;;;;;;0.30;0.20;;;21.20;99.90;;;;;;4985007;28;20069;-41
2022/07/11 12:01:40;;;;;;;0.70;0.10;;;21.20;99.90;;;;;;5004787;28;20066;-43
2022/07/11 12:04:11;;;;;;;1.23;0.28;;;21.10;99.90;;;;;;4984233;28;20165;-41
2022/07/11 12:06:38;;;;;;;0.88;0.30;;;21.00;99.90;;;;;;4987815;28;20057;-40
2022/07/11 12:09:08;;;;;;;0.82;0.20;;;21.00;99.90;;;;;;4985922;28;20128;-43
2022/07/11 12:11:35;;;;;;;1.13;0.20;;;21.00;99.90;;;;;;4987798;28;20440;-41
2022/07/11 12:14:03;;;;;;;0.20;0.20;;;21.10;99.90;;;;;;4988099;28;20062;-42
2022/07/11 12:16:41;;;;;;;0.45;0.20;;;21.30;99.90;;;;;;4987531;28;20038;-42
2022/07/11 12:19:16;;;;;;;0.22;0.20;;;21.40;99.90;;;;;;4987102;28;20121;-41
2022/07/11 12:21:50;;;;;;;0.10;0.10;;;21.70;99.90;;;;;;4984976;28;20130;-41
2022/07/11 12:24:26;;;;;;;0.50;0.22;;;21.90;99.60;;;;;;4986885;28;20129;-41
2022/07/11 12:26:52;;;;;;;0.40;0.20;;;22.00;97.70;;;;;;4987890;28;20050;-42
2022/07/11 12:29:22;;;;;;;1.13;0.20;;;22.00;98.20;;;;;;4987299;28;20048;-42
2022/07/11 12:31:48;;;;;;;0.60;0.30;;;22.00;98.00;;;;;;4983428;28;20046;-41
2022/07/11 12:34:15;;;;;;;0.40;0.38;;;22.00;97.90;;;;;;4987765;28;20069;-41
2022/07/11 12:36:41;;;;;;;0.82;0.30;;;21.90;97.90;;;;;;4987935;28;20038;-40
2022/07/11 12:39:07;;;;;;;0.65;0.38;;;22.00;98.40;;;;;;4988637;28;20566;-42
2022/07/11 12:41:33;;;;;;;1.85;0.50;;;21.90;98.20;;;;;;4983657;28;20066;-42
2022/07/11 12:46:46;;;;;;;1.67;0.40;;;21.60;99.00;;;;;;4985038;28;20052;-44
2022/07/11 12:49:12;;;;;;;0.47;0.30;;;21.60;99.80;;;;;;4984585;28;20074;-42
2022/07/11 12:51:40;;;;;;;0.60;0.30;;;21.50;99.20;;;;;;4984550;28;20042;-42
2022/07/11 12:54:16;;;;;;;1.80;0.38;;;21.50;99.70;;;;;;4966827;28;20446;-43
2022/07/11 12:56:53;;;;;;;0.20;0.20;;;21.50;99.40;;;;;;4984883;28;20049;-42
2022/07/11 12:59:21;;;;;;;0.40;0.30;;;21.50;99.90;;;;;;4981412;28;20042;-41